sensor_id;sensor_type;location;lat;lon;timestamp;pressure;altitude;pressure_sealevel;temperature;humidity
7170;BME280;3626;42.656;23.312;2022-07-29T00:00:00;94704.28;;;17.93;100.00
7170;BME280;3626;42.656;23.312;2022-07-29T00:00:07;94703.25;;;17.94;100.00
7170;BME280;3626;42.656;23.312;2022-07-29T00:00:14;94707.47;;;17.95;100.00
7170;BME280;3626;42.656;23.312;2022-07-29T00:00:20;94700.66;;;17.94;100.00
7170;BME280;3626;42.656;23.312;2022-07-29T00:00:26;94705.88;;;17.94;100.00
7170;BME280;3626;42.656;23.312;2022-07-29T00:00:32;94704.28;;;17.93;100.00
7170;BME280;3626;42.656;23.312;2022-07-29T00:00:38;94702.66;;;17.92;100.00
7170;BME280;3626;42.656;23.312;2022-07-29T00:00:43;94706.09;;;17.93;100.00
7170;BME280;3626;42.656;23.312;2022-07-29T00:00:49;94710.31;;;17.94;100.00
7170;BME280;3626;42.656;23.312;2022-07-29T00:00:55;94702.66;;;17.92;100.00
7170;BME280;3626;42.656;23.312;2022-07-29T00:01:01;94709.28;;;17.95;100.00
7170;BME280;3626;42.656;23.312;2022-07-29T00:01:07;94703.25;;;17.94;100.00
7170;BME280;3626;42.656;23.312;2022-07-29T00:01:14;94708.50;;;17.94;100.00
7170;BME280;3626;42.656;23.312;2022-07-29T00:01:21;94712.69;;;17.95;100.00
7170;BME280;3626;42.656;23.312;2022-07-29T00:01:27;94706.44;;;17.96;100.00
7170;BME280;3626;42.656;23.312;2022-07-29T00:01:33;94715.91;;;17.97;100.00
7170;BME280;3626;42.656;23.312;2022-07-29T00:01:38;94711.47;;;17.98;100.00
7170;BME280;3626;42.656;23.312;2022-07-29T00:01:44;94714.91;;;17.98;100.00
7170;BME280;3626;42.656;23.312;2022-07-29T00:01:50;94707.06;;;17.98;100.00
7170;BME280;3626;42.656;23.312;2022-07-29T00:01:57;94715.47;;;18.01;100.00
7170;BME280;3626;42.656;23.312;2022-07-29T00:02:03;94716.06;;;18.03;100.00
7170;BME280;3626;42.656;23.312;2022-07-29T00:02:09;94711.88;;;18.02;100.00
7170;BME280;3626;42.656;23.312;2022-07-29T00:02:15;94712.84;;;18.01;100.00
7170;BME280;3626;42.656;23.312;2022-07-29T00:02:21;94714.91;;;17.98;99.98
7170;BME280;3626;42.656;23.312;2022-07-29T00:02:26;94718.31;;;17.99;100.00
7170;BME280;3626;42.656;23.312;2022-07-29T00:02:33;94718.31;;;17.99;100.00
7170;BME280;3626;42.656;23.312;2022-07-29T00:02:39;94713.88;;;17.99;100.00
7170;BME280;3626;42.656;23.312;2022-07-29T00:02:45;94713.88;;;17.99;100.00
7170;BME280;3626;42.656;23.312;2022-07-29T00:02:50;94718.09;;;18.01;100.00
7170;BME280;3626;42.656;23.312;2022-07-29T00:02:56;94714.47;;;18.02;100.00
7170;BME280;3626;42.656;23.312;2022-07-29T00:03:02;94715.47;;;18.01;100.00
7170;BME280;3626;42.656;23.312;2022-07-29T00:03:08;94723.13;;;18.02;100.00
7170;BME280;3626;42.656;23.312;2022-07-29T00:03:14;94714.25;;;18.03;100.00
7170;BME280;3626;42.656;23.312;2022-07-29T00:03:20;94719.72;;;18.02;100.00
7170;BME280;3626;42.656;23.312;2022-07-29T00:03:26;94719.72;;;18.02;100.00
7170;BME280;3626;42.656;23.312;2022-07-29T00:03:31;94717.88;;;18.02;100.00
7170;BME280;3626;42.656;23.312;2022-07-29T00:03:37;94714.25;;;18.03;100.00
7170;BME280;3626;42.656;23.312;2022-07-29T00:03:43;94714.25;;;18.03;100.00
7170;BME280;3626;42.656;23.312;2022-07-29T00:03:48;94714.47;;;18.02;100.00
7170;BME280;3626;42.656;23.312;2022-07-29T00:03:55;94718.69;;;18.03;100.00
7170;BME280;3626;42.656;23.312;2022-07-29T00:04:01;94719.47;;;18.03;100.00
7170;BME280;3626;42.656;23.312;2022-07-29T00:04:07;94718.69;;;18.03;100.00
7170;BME280;3626;42.656;23.312;2022-07-29T00:04:14;94717.88;;;18.02;100.00
7170;BME280;3626;42.656;23.312;2022-07-29T00:04:19;94721.53;;;18.01;100.00
7170;BME280;3626;42.656;23.312;2022-07-29T00:04:25;94722.31;;;18.02;100.00
7170;BME280;3626;42.656;23.312;2022-07-29T00:04:34;94724.94;;;18.02;100.00
7170;BME280;3626;42.656;23.312;2022-07-29T00:04:40;94729.13;;;18.03;100.00
7170;BME280;3626;42.656;23.312;2022-07-29T00:04:45;94723.91;;;18.03;100.00
7170;BME280;3626;42.656;23.312;2022-07-29T00:04:51;94718.69;;;18.03;100.00
7170;BME280;3626;42.656;23.312;2022-07-29T00:04:57;94723.69;;;18.04;100.00
7170;BME280;3626;42.656;23.312;2022-07-29T00:05:04;94723.91;;;18.03;100.00
7170;BME280;3626;42.656;23.312;2022-07-29T00:05:11;94726.31;;;18.04;100.00
7170;BME280;3626;42.656;23.312;2022-07-29T00:05:18;94727.09;;;18.05;100.00
7170;BME280;3626;42.656;23.312;2022-07-29T00:05:24;94722.91;;;18.04;100.00
7170;BME280;3626;42.656;23.312;2022-07-29T00:05:30;94714.25;;;18.03;100.00
7170;BME280;3626;42.656;23.312;2022-07-29T00:05:36;94724.72;;;18.03;100.00
7170;BME280;3626;42.656;23.312;2022-07-29T00:05:43;94724.72;;;18.03;100.00
7170;BME280;3626;42.656;23.312;2022-07-29T00:05:49;94723.91;;;18.03;100.00
7170;BME280;3626;42.656;23.312;2022-07-29T00:05:55;94722.09;;;18.03;100.00
7170;BME280;3626;42.656;23.312;2022-07-29T00:06:00;94725.50;;;18.04;100.00
7170;BME280;3626;42.656;23.312;2022-07-29T00:06:06;94727.09;;;18.05;100.00
7170;BME280;3626;42.656;23.312;2022-07-29T00:06:12;94728.91;;;18.04;100.00
7170;BME280;3626;42.656;23.312;2022-07-29T00:06:18;94723.69;;;18.04;100.00
7170;BME280;3626;42.656;23.312;2022-07-29T00:06:24;94721.88;;;18.05;100.00
7170;BME280;3626;42.656;23.312;2022-07-29T00:06:30;94726.13;;;18.06;100.00
7170;BME280;3626;42.656;23.312;2022-07-29T00:06:36;94720.88;;;18.06;100.00
7170;BME280;3626;42.656;23.312;2022-07-29T00:06:42;94725.50;;;18.04;100.00
7170;BME280;3626;42.656;23.312;2022-07-29T00:06:47;94730.72;;;18.04;100.00
7170;BME280;3626;42.656;23.312;2022-07-29T00:06:54;94727.09;;;18.05;100.00
7170;BME280;3626;42.656;23.312;2022-07-29T00:07:00;94722.09;;;18.03;100.00
7170;BME280;3626;42.656;23.312;2022-07-29T00:07:06;94730.72;;;18.04;100.00
7170;BME280;3626;42.656;23.312;2022-07-29T00:07:11;94730.50;;;18.05;100.00
7170;BME280;3626;42.656;23.312;2022-07-29T00:07:17;94721.88;;;18.05;100.00
7170;BME280;3626;42.656;23.312;2022-07-29T00:07:23;94729.31;;;18.08;100.00
7170;BME280;3626;42.656;23.312;2022-07-29T00:07:29;94725.88;;;18.07;100.00
7170;BME280;3626;42.656;23.312;2022-07-29T00:07:34;94730.31;;;18.07;100.00
7170;BME280;3626;42.656;23.312;2022-07-29T00:07:40;94736.56;;;18.06;100.00
7170;BME280;3626;42.656;23.312;2022-07-29T00:07:46;94728.72;;;18.06;100.00
7170;BME280;3626;42.656;23.312;2022-07-29T00:07:52;94731.13;;;18.07;100.00
7170;BME280;3626;42.656;23.312;2022-07-29T00:07:58;94723.28;;;18.07;100.00
7170;BME280;3626;42.656;23.312;2022-07-29T00:08:03;94732.72;;;18.08;100.00
7170;BME280;3626;42.656;23.312;2022-07-29T00:08:09;94727.47;;;18.08;100.00
7170;BME280;3626;42.656;23.312;2022-07-29T00:08:15;94725.66;;;18.09;100.00
7170;BME280;3626;42.656;23.312;2022-07-29T00:08:21;94733.94;;;18.06;100.00
7170;BME280;3626;42.656;23.312;2022-07-29T00:08:26;94735.94;;;18.04;100.00
7170;BME280;3626;42.656;23.312;2022-07-29T00:08:33;94735.94;;;18.04;100.00
7170;BME280;3626;42.656;23.312;2022-07-29T00:08:39;94734.13;;;18.04;100.00
7170;BME280;3626;42.656;23.312;2022-07-29T00:08:44;94728.13;;;18.04;100.00
7170;BME280;3626;42.656;23.312;2022-07-29T00:08:50;94729.94;;;18.03;100.00
7170;BME280;3626;42.656;23.312;2022-07-29T00:08:56;94738.56;;;18.04;100.00
7170;BME280;3626;42.656;23.312;2022-07-29T00:09:02;94729.94;;;18.03;100.00
7170;BME280;3626;42.656;23.312;2022-07-29T00:09:08;94734.34;;;18.03;100.00
7170;BME280;3626;42.656;23.312;2022-07-29T00:09:13;94734.34;;;18.03;100.00
7170;BME280;3626;42.656;23.312;2022-07-29T00:09:19;94732.94;;;18.00;100.00
7170;BME280;3626;42.656;23.312;2022-07-29T00:09:25;94731.56;;;17.97;100.00
7170;BME280;3626;42.656;23.312;2022-07-29T00:09:31;94732.38;;;17.98;100.00
7170;BME280;3626;42.656;23.312;2022-07-29T00:09:37;94737.59;;;17.98;100.00
7170;BME280;3626;42.656;23.312;2022-07-29T00:09:43;94731.56;;;17.97;100.00
7170;BME280;3626;42.656;23.312;2022-07-29T00:09:50;94734.19;;;17.97;100.00
7170;BME280;3626;42.656;23.312;2022-07-29T00:09:56;94731.56;;;17.97;100.00
7170;BME280;3626;42.656;23.312;2022-07-29T00:10:02;94733.16;;;17.98;100.00
7170;BME280;3626;42.656;23.312;2022-07-29T00:10:08;94737.00;;;17.96;100.00
7170;BME280;3626;42.656;23.312;2022-07-29T00:10:14;94734.38;;;17.96;100.00
7170;BME280;3626;42.656;23.312;2022-07-29T00:10:20;94738.00;;;17.95;100.00
7170;BME280;3626;42.656;23.312;2022-07-29T00:10:27;94738.00;;;17.95;100.00
7170;BME280;3626;42.656;23.312;2022-07-29T00:10:33;94735.41;;;17.95;100.00
7170;BME280;3626;42.656;23.312;2022-07-29T00:10:39;94736.41;;;17.94;100.00
7170;BME280;3626;42.656;23.312;2022-07-29T00:10:44;94732.00;;;17.94;100.00
7170;BME280;3626;42.656;23.312;2022-07-29T00:10:50;94734.59;;;17.94;100.00
7170;BME280;3626;42.656;23.312;2022-07-29T00:10:56;94737.22;;;17.94;100.00
7170;BME280;3626;42.656;23.312;2022-07-29T00:11:02;94739.22;;;17.92;100.00
7170;BME280;3626;42.656;23.312;2022-07-29T00:11:07;94734.22;;;17.91;100.00
7170;BME280;3626;42.656;23.312;2022-07-29T00:11:14;94740.03;;;17.93;100.00
7170;BME280;3626;42.656;23.312;2022-07-29T00:11:20;94740.03;;;17.93;100.00
7170;BME280;3626;42.656;23.312;2022-07-29T00:11:26;94735.63;;;17.93;100.00
7170;BME280;3626;42.656;23.312;2022-07-29T00:11:31;94738.41;;;17.92;100.00
7170;BME280;3626;42.656;23.312;2022-07-29T00:11:37;94736.81;;;17.91;100.00
7170;BME280;3626;42.656;23.312;2022-07-29T00:11:43;94737.63;;;17.91;100.00
7170;BME280;3626;42.656;23.312;2022-07-29T00:11:49;94737.63;;;17.91;100.00
7170;BME280;3626;42.656;23.312;2022-07-29T00:11:56;94736.59;;;17.92;100.00
7170;BME280;3626;42.656;23.312;2022-07-29T00:12:04;94735.00;;;17.91;100.00
7170;BME280;3626;42.656;23.312;2022-07-29T00:12:10;94738.41;;;17.92;100.00
7170;BME280;3626;42.656;23.312;2022-07-29T00:12:16;94743.44;;;17.93;100.00
7170;BME280;3626;42.656;23.312;2022-07-29T00:12:23;94740.84;;;17.93;100.00
7170;BME280;3626;42.656;23.312;2022-07-29T00:12:29;94736.41;;;17.94;100.00
7170;BME280;3626;42.656;23.312;2022-07-29T00:12:35;94738.81;;;17.95;100.00
7170;BME280;3626;42.656;23.312;2022-07-29T00:12:42;94735.63;;;17.93;100.00
7170;BME280;3626;42.656;23.312;2022-07-29T00:12:48;94742.44;;;17.94;100.00
7170;BME280;3626;42.656;23.312;2022-07-29T00:12:53;94748.22;;;17.96;100.00
7170;BME280;3626;42.656;23.312;2022-07-29T00:12:59;94736.19;;;17.95;100.00
7170;BME280;3626;42.656;23.312;2022-07-29T00:13:05;94743.22;;;17.95;100.00
7170;BME280;3626;42.656;23.312;2022-07-29T00:13:11;94745.03;;;17.94;100.00
7170;BME280;3626;42.656;23.312;2022-07-29T00:13:17;94742.44;;;17.94;100.00
7170;BME280;3626;42.656;23.312;2022-07-29T00:13:22;94744.03;;;17.95;100.00
7170;BME280;3626;42.656;23.312;2022-07-29T00:13:28;94738.00;;;17.95;100.00
7170;BME280;3626;42.656;23.312;2022-07-29T00:13:34;94742.44;;;17.94;100.00
7170;BME280;3626;42.656;23.312;2022-07-29T00:13:40;94738.81;;;17.95;100.00
7170;BME280;3626;42.656;23.312;2022-07-29T00:13:45;94739.81;;;17.94;100.00
7170;BME280;3626;42.656;23.312;2022-07-29T00:13:51;94745.03;;;17.94;100.00
7170;BME280;3626;42.656;23.312;2022-07-29T00:13:58;94739.81;;;17.94;100.00
7170;BME280;3626;42.656;23.312;2022-07-29T00:14:04;94745.03;;;17.94;100.00
7170;BME280;3626;42.656;23.312;2022-07-29T00:14:09;94736.41;;;17.94;100.00
7170;BME280;3626;42.656;23.312;2022-07-29T00:14:15;94737.22;;;17.94;100.00
7170;BME280;3626;42.656;23.312;2022-07-29T00:14:21;94738.22;;;17.93;100.00
7170;BME280;3626;42.656;23.312;2022-07-29T00:14:27;94744.44;;;17.92;100.00
7170;BME280;3626;42.656;23.312;2022-07-29T00:14:33;94737.63;;;17.91;100.00
7170;BME280;3626;42.656;23.312;2022-07-29T00:14:39;94741.25;;;17.90;100.00
7170;BME280;3626;42.656;23.312;2022-07-29T00:14:44;94745.44;;;17.91;100.00
7170;BME280;3626;42.656;23.312;2022-07-29T00:14:50;94742.03;;;17.91;100.00
7170;BME280;3626;42.656;23.312;2022-07-29T00:14:57;94735.22;;;17.90;100.00
7170;BME280;3626;42.656;23.312;2022-07-29T00:15:04;94740.22;;;17.91;100.00
7170;BME280;3626;42.656;23.312;2022-07-29T00:15:10;94737.84;;;17.90;100.00
7170;BME280;3626;42.656;23.312;2022-07-29T00:15:16;94744.66;;;17.91;100.00
7170;BME280;3626;42.656;23.312;2022-07-29T00:15:21;94744.88;;;17.89;100.00
7170;BME280;3626;42.656;23.312;2022-07-29T00:15:28;94736.25;;;17.89;100.00
7170;BME280;3626;42.656;23.312;2022-07-29T00:15:33;94743.06;;;17.90;100.00
7170;BME280;3626;42.656;23.312;2022-07-29T00:15:40;94739.66;;;17.89;100.00
7170;BME280;3626;42.656;23.312;2022-07-29T00:15:46;94741.25;;;17.90;100.00
7170;BME280;3626;42.656;23.312;2022-07-29T00:15:52;94743.06;;;17.90;100.00
7170;BME280;3626;42.656;23.312;2022-07-29T00:15:58;94740.22;;;17.91;100.00
7170;BME280;3626;42.656;23.312;2022-07-29T00:16:04;94738.63;;;17.90;100.00
7170;BME280;3626;42.656;23.312;2022-07-29T00:16:10;94743.84;;;17.90;100.00
7170;BME280;3626;42.656;23.312;2022-07-29T00:16:15;94741.25;;;17.90;100.00
7170;BME280;3626;42.656;23.312;2022-07-29T00:16:21;94741.25;;;17.90;100.00
7170;BME280;3626;42.656;23.312;2022-07-29T00:16:27;94742.03;;;17.91;100.00
7170;BME280;3626;42.656;23.312;2022-07-29T00:16:33;94741.81;;;17.92;100.00
7170;BME280;3626;42.656;23.312;2022-07-29T00:16:38;94739.22;;;17.92;100.00
7170;BME280;3626;42.656;23.312;2022-07-29T00:16:44;94734.00;;;17.92;100.00
7170;BME280;3626;42.656;23.312;2022-07-29T00:16:50;94741.03;;;17.92;100.00
7170;BME280;3626;42.656;23.312;2022-07-29T00:16:56;94742.84;;;17.91;100.00
7170;BME280;3626;42.656;23.312;2022-07-29T00:17:02;94744.66;;;17.91;100.00
7170;BME280;3626;42.656;23.312;2022-07-29T00:17:07;94742.03;;;17.91;100.00
7170;BME280;3626;42.656;23.312;2022-07-29T00:17:14;94738.41;;;17.92;100.00
7170;BME280;3626;42.656;23.312;2022-07-29T00:17:20;94737.63;;;17.91;100.00
7170;BME280;3626;42.656;23.312;2022-07-29T00:17:26;94743.63;;;17.92;100.00
7170;BME280;3626;42.656;23.312;2022-07-29T00:17:31;94741.81;;;17.92;100.00
7170;BME280;3626;42.656;23.312;2022-07-29T00:17:39;94736.59;;;17.92;100.00
7170;BME280;3626;42.656;23.312;2022-07-29T00:17:45;94742.66;;;17.93;100.00
7170;BME280;3626;42.656;23.312;2022-07-29T00:17:50;94746.06;;;17.93;100.00
7170;BME280;3626;42.656;23.312;2022-07-29T00:17:56;94739.03;;;17.94;100.00
7170;BME280;3626;42.656;23.312;2022-07-29T00:18:02;94739.22;;;17.92;100.00
7170;BME280;3626;42.656;23.312;2022-07-29T00:18:08;94742.66;;;17.93;100.00
7170;BME280;3626;42.656;23.312;2022-07-29T00:18:14;94730.59;;;17.92;100.00
7170;BME280;3626;42.656;23.312;2022-07-29T00:18:20;94735.81;;;17.92;100.00
7170;BME280;3626;42.656;23.312;2022-07-29T00:18:26;94738.41;;;17.92;100.00
7170;BME280;3626;42.656;23.312;2022-07-29T00:18:31;94738.41;;;17.92;100.00
7170;BME280;3626;42.656;23.312;2022-07-29T00:18:37;94738.41;;;17.92;100.00
7170;BME280;3626;42.656;23.312;2022-07-29T00:18:44;94736.59;;;17.92;100.00
7170;BME280;3626;42.656;23.312;2022-07-29T00:18:50;94734.00;;;17.92;100.00
7170;BME280;3626;42.656;23.312;2022-07-29T00:18:56;94732.22;;;17.93;100.00
7170;BME280;3626;42.656;23.312;2022-07-29T00:19:02;94738.22;;;17.93;100.00
7170;BME280;3626;42.656;23.312;2022-07-29T00:19:08;94745.25;;;17.93;100.00
7170;BME280;3626;42.656;23.312;2022-07-29T00:19:15;94741.81;;;17.92;100.00
7170;BME280;3626;42.656;23.312;2022-07-29T00:19:21;94741.63;;;17.94;100.00
7170;BME280;3626;42.656;23.312;2022-07-29T00:19:27;94743.44;;;17.93;100.00
7170;BME280;3626;42.656;23.312;2022-07-29T00:19:32;94734.81;;;17.93;100.00
7170;BME280;3626;42.656;23.312;2022-07-29T00:19:39;94736.41;;;17.94;100.00
7170;BME280;3626;42.656;23.312;2022-07-29T00:19:45;94737.22;;;17.94;100.00
7170;BME280;3626;42.656;23.312;2022-07-29T00:19:51;94740.03;;;17.93;100.00
7170;BME280;3626;42.656;23.312;2022-07-29T00:19:57;94739.44;;;17.91;100.00
7170;BME280;3626;42.656;23.312;2022-07-29T00:20:04;94745.44;;;17.91;100.00
7170;BME280;3626;42.656;23.312;2022-07-29T00:20:10;94736.81;;;17.91;100.00
7170;BME280;3626;42.656;23.312;2022-07-29T00:20:16;94732.63;;;17.90;100.00
7170;BME280;3626;42.656;23.312;2022-07-29T00:20:22;94738.63;;;17.90;100.00
7170;BME280;3626;42.656;23.312;2022-07-29T00:20:28;94739.44;;;17.91;100.00
7170;BME280;3626;42.656;23.312;2022-07-29T00:20:34;94741.03;;;17.92;100.00
7170;BME280;3626;42.656;23.312;2022-07-29T00:20:39;94732.41;;;17.91;100.00
7170;BME280;3626;42.656;23.312;2022-07-29T00:20:45;94740.22;;;17.91;100.00
7170;BME280;3626;42.656;23.312;2022-07-29T00:20:51;94741.81;;;17.92;100.00
7170;BME280;3626;42.656;23.312;2022-07-29T00:20:56;94738.41;;;17.92;100.00
7170;BME280;3626;42.656;23.312;2022-07-29T00:21:02;94736.59;;;17.92;100.00
7170;BME280;3626;42.656;23.312;2022-07-29T00:21:08;94738.41;;;17.92;100.00
7170;BME280;3626;42.656;23.312;2022-07-29T00:21:14;94734.81;;;17.93;100.00
7170;BME280;3626;42.656;23.312;2022-07-29T00:21:20;94739.22;;;17.92;100.00
7170;BME280;3626;42.656;23.312;2022-07-29T00:21:26;94740.84;;;17.93;100.00
7170;BME280;3626;42.656;23.312;2022-07-29T00:21:32;94740.84;;;17.93;100.00
7170;BME280;3626;42.656;23.312;2022-07-29T00:21:38;94742.44;;;17.94;100.00
7170;BME280;3626;42.656;23.312;2022-07-29T00:21:44;94738.81;;;17.95;100.00
7170;BME280;3626;42.656;23.312;2022-07-29T00:21:49;94744.03;;;17.95;100.00
7170;BME280;3626;42.656;23.312;2022-07-29T00:21:55;94736.41;;;17.94;100.00
7170;BME280;3626;42.656;23.312;2022-07-29T00:22:01;94738.00;;;17.95;100.00
7170;BME280;3626;42.656;23.312;2022-07-29T00:22:07;94734.59;;;17.94;100.00
7170;BME280;3626;42.656;23.312;2022-07-29T00:22:13;94732.78;;;17.95;100.00
7170;BME280;3626;42.656;23.312;2022-07-29T00:22:18;94735.41;;;17.95;100.00
7170;BME280;3626;42.656;23.312;2022-07-29T00:22:24;94737.22;;;17.94;100.00
7170;BME280;3626;42.656;23.312;2022-07-29T00:22:30;94735.63;;;17.93;100.00
7170;BME280;3626;42.656;23.312;2022-07-29T00:22:37;94737.22;;;17.94;100.00
7170;BME280;3626;42.656;23.312;2022-07-29T00:22:43;94742.44;;;17.94;100.00
7170;BME280;3626;42.656;23.312;2022-07-29T00:22:49;94743.22;;;17.95;100.00
7170;BME280;3626;42.656;23.312;2022-07-29T00:22:55;94738.81;;;17.95;100.00
7170;BME280;3626;42.656;23.312;2022-07-29T00:23:01;94737.00;;;17.96;100.00
7170;BME280;3626;42.656;23.312;2022-07-29T00:23:06;94738.00;;;17.95;100.00
7170;BME280;3626;42.656;23.312;2022-07-29T00:23:12;94736.19;;;17.95;100.00
7170;BME280;3626;42.656;23.312;2022-07-29T00:23:18;94738.81;;;17.95;100.00
7170;BME280;3626;42.656;23.312;2022-07-29T00:23:24;94736.00;;;17.97;100.00
7170;BME280;3626;42.656;23.312;2022-07-29T00:23:29;94739.59;;;17.96;100.00
7170;BME280;3626;42.656;23.312;2022-07-29T00:23:35;94733.59;;;17.95;100.00
7170;BME280;3626;42.656;23.312;2022-07-29T00:23:41;94738.81;;;17.95;100.00
7170;BME280;3626;42.656;23.312;2022-07-29T00:23:47;94737.00;;;17.96;100.00
7170;BME280;3626;42.656;23.312;2022-07-29T00:23:52;94736.00;;;17.97;100.00
7170;BME280;3626;42.656;23.312;2022-07-29T00:23:59;94740.22;;;17.98;100.00
7170;BME280;3626;42.656;23.312;2022-07-29T00:24:05;94732.00;;;17.94;100.00
7170;BME280;3626;42.656;23.312;2022-07-29T00:24:11;94733.00;;;17.93;100.00
7170;BME280;3626;42.656;23.312;2022-07-29T00:24:17;94734.81;;;17.93;100.00
7170;BME280;3626;42.656;23.312;2022-07-29T00:24:22;94733.19;;;17.92;100.00
7170;BME280;3626;42.656;23.312;2022-07-29T00:24:28;94733.19;;;17.92;100.00
7170;BME280;3626;42.656;23.312;2022-07-29T00:24:34;94727.97;;;17.92;100.00
7170;BME280;3626;42.656;23.312;2022-07-29T00:24:40;94735.00;;;17.91;100.00
7170;BME280;3626;42.656;23.312;2022-07-29T00:24:47;94739.22;;;17.92;100.00
7170;BME280;3626;42.656;23.312;2022-07-29T00:24:53;94734.81;;;17.93;100.00
7170;BME280;3626;42.656;23.312;2022-07-29T00:24:58;94731.38;;;17.92;100.00
7170;BME280;3626;42.656;23.312;2022-07-29T00:25:05;94734.00;;;17.92;100.00
7170;BME280;3626;42.656;23.312;2022-07-29T00:25:12;94733.00;;;17.93;100.00
7170;BME280;3626;42.656;23.312;2022-07-29T00:25:18;94734.59;;;17.94;100.00
7170;BME280;3626;42.656;23.312;2022-07-29T00:25:23;94734.81;;;17.93;100.00
7170;BME280;3626;42.656;23.312;2022-07-29T00:25:29;94733.81;;;17.94;100.00
7170;BME280;3626;42.656;23.312;2022-07-29T00:25:36;94728.75;;;17.92;100.00
7170;BME280;3626;42.656;23.312;2022-07-29T00:25:42;94731.59;;;17.91;100.00
7170;BME280;3626;42.656;23.312;2022-07-29T00:25:47;94732.84;;;17.88;100.00
7170;BME280;3626;42.656;23.312;2022-07-29T00:25:53;94733.81;;;17.87;100.00
7170;BME280;3626;42.656;23.312;2022-07-29T00:25:59;94733.81;;;17.87;100.00
7170;BME280;3626;42.656;23.312;2022-07-29T00:26:05;94736.44;;;17.87;100.00
7170;BME280;3626;42.656;23.312;2022-07-29T00:26:10;94731.22;;;17.87;100.00
7170;BME280;3626;42.656;23.312;2022-07-29T00:26:16;94736.44;;;17.87;100.00
7170;BME280;3626;42.656;23.312;2022-07-29T00:26:22;94734.44;;;17.89;100.00
7170;BME280;3626;42.656;23.312;2022-07-29T00:26:28;94736.25;;;17.89;100.00
7170;BME280;3626;42.656;23.312;2022-07-29T00:26:37;94734.44;;;17.89;100.00
7170;BME280;3626;42.656;23.312;2022-07-29T00:26:42;94736.25;;;17.89;100.00
7170;BME280;3626;42.656;23.312;2022-07-29T00:26:49;94738.84;;;17.89;100.00
7170;BME280;3626;42.656;23.312;2022-07-29T00:26:55;94737.03;;;17.89;100.00
7170;BME280;3626;42.656;23.312;2022-07-29T00:27:00;94730.81;;;17.90;100.00
7170;BME280;3626;42.656;23.312;2022-07-29T00:27:06;94737.03;;;17.89;100.00
7170;BME280;3626;42.656;23.312;2022-07-29T00:27:12;94740.44;;;17.90;100.00
7170;BME280;3626;42.656;23.312;2022-07-29T00:27:18;94732.00;;;17.88;100.00
7170;BME280;3626;42.656;23.312;2022-07-29T00:27:23;94736.44;;;17.87;100.00
7170;BME280;3626;42.656;23.312;2022-07-29T00:27:29;94731.22;;;17.87;100.00
7170;BME280;3626;42.656;23.312;2022-07-29T00:27:35;94730.41;;;17.87;100.00
7170;BME280;3626;42.656;23.312;2022-07-29T00:27:41;94731.22;;;17.87;100.00
7170;BME280;3626;42.656;23.312;2022-07-29T00:27:47;94731.22;;;17.87;100.00
7170;BME280;3626;42.656;23.312;2022-07-29T00:27:53;94737.22;;;17.88;100.00
7170;BME280;3626;42.656;23.312;2022-07-29T00:27:58;94731.22;;;17.87;100.00
7170;BME280;3626;42.656;23.312;2022-07-29T00:28:04;94736.25;;;17.89;100.00
7170;BME280;3626;42.656;23.312;2022-07-29T00:28:10;94728.41;;;17.89;100.00
7170;BME280;3626;42.656;23.312;2022-07-29T00:28:16;94737.03;;;17.89;100.00
7170;BME280;3626;42.656;23.312;2022-07-29T00:28:21;94732.84;;;17.88;100.00
7170;BME280;3626;42.656;23.312;2022-07-29T00:28:28;94729.41;;;17.88;100.00
7170;BME280;3626;42.656;23.312;2022-07-29T00:28:34;94732.84;;;17.88;100.00
7170;BME280;3626;42.656;23.312;2022-07-29T00:28:39;94735.22;;;17.90;100.00
7170;BME280;3626;42.656;23.312;2022-07-29T00:28:45;94731.81;;;17.89;100.00
7170;BME280;3626;42.656;23.312;2022-07-29T00:28:51;94730.22;;;17.88;100.00
7170;BME280;3626;42.656;23.312;2022-07-29T00:28:57;94728.19;;;17.90;100.00
7170;BME280;3626;42.656;23.312;2022-07-29T00:29:04;94730.81;;;17.90;100.00
7170;BME280;3626;42.656;23.312;2022-07-29T00:29:10;94727.38;;;17.90;100.00
7170;BME280;3626;42.656;23.312;2022-07-29T00:29:15;94728.41;;;17.89;100.00
7170;BME280;3626;42.656;23.312;2022-07-29T00:29:21;94738.06;;;17.88;100.00
7170;BME280;3626;42.656;23.312;2022-07-29T00:29:27;94729.41;;;17.88;100.00
7170;BME280;3626;42.656;23.312;2022-07-29T00:29:33;94731.03;;;17.89;100.00
7170;BME280;3626;42.656;23.312;2022-07-29T00:29:39;94731.22;;;17.87;100.00
7170;BME280;3626;42.656;23.312;2022-07-29T00:29:45;94725.00;;;17.88;100.00
7170;BME280;3626;42.656;23.312;2022-07-29T00:29:51;94729.41;;;17.88;100.00
7170;BME280;3626;42.656;23.312;2022-07-29T00:29:57;94735.44;;;17.88;100.00
7170;BME280;3626;42.656;23.312;2022-07-29T00:30:04;94726.78;;;17.88;100.00
7170;BME280;3626;42.656;23.312;2022-07-29T00:30:10;94728.41;;;17.89;100.00
7170;BME280;3626;42.656;23.312;2022-07-29T00:30:16;94734.44;;;17.89;100.00
7170;BME280;3626;42.656;23.312;2022-07-29T00:30:21;94723.19;;;17.89;100.00
7170;BME280;3626;42.656;23.312;2022-07-29T00:30:27;94728.41;;;17.89;100.00
7170;BME280;3626;42.656;23.312;2022-07-29T00:30:33;94733.63;;;17.89;100.00
7170;BME280;3626;42.656;23.312;2022-07-29T00:30:39;94726.59;;;17.89;100.00
7170;BME280;3626;42.656;23.312;2022-07-29T00:30:48;94726.59;;;17.89;100.00
7170;BME280;3626;42.656;23.312;2022-07-29T00:30:53;94727.63;;;17.88;100.00
7170;BME280;3626;42.656;23.312;2022-07-29T00:30:59;94731.81;;;17.89;100.00
7170;BME280;3626;42.656;23.312;2022-07-29T00:31:05;94727.38;;;17.90;100.00
7170;BME280;3626;42.656;23.312;2022-07-29T00:31:11;94732.41;;;17.91;100.00
7170;BME280;3626;42.656;23.312;2022-07-29T00:31:18;94719.56;;;17.90;100.00
7170;BME280;3626;42.656;23.312;2022-07-29T00:31:24;94730.22;;;17.88;100.00
7170;BME280;3626;42.656;23.312;2022-07-29T00:31:30;94728.59;;;17.87;100.00
7170;BME280;3626;42.656;23.312;2022-07-29T00:31:35;94732.84;;;17.88;100.00
7170;BME280;3626;42.656;23.312;2022-07-29T00:31:41;94728.59;;;17.87;100.00